createdAt,value
2023-06-10T00:02:17.474Z,14.05
2023-06-10T00:05:03.034Z,15.50
2023-06-10T00:07:48.645Z,15.00
2023-06-10T00:10:37.453Z,13.75
2023-06-10T00:13:22.268Z,14.77
2023-06-10T00:16:07.335Z,13.90
2023-06-10T00:18:52.698Z,15.15
2023-06-10T00:21:40.675Z,14.95
2023-06-10T00:24:25.661Z,14.70
2023-06-10T00:27:10.738Z,15.95
2023-06-10T00:29:55.622Z,14.70
2023-06-10T00:32:40.747Z,15.10
2023-06-10T00:35:25.508Z,15.32
2023-06-10T00:38:11.622Z,15.57
2023-06-10T00:40:56.492Z,14.13
2023-06-10T00:43:43.098Z,16.20
2023-06-10T00:46:28.356Z,16.40
2023-06-10T00:49:14.645Z,17.48
2023-06-10T00:51:59.968Z,15.98
2023-06-10T00:54:45.414Z,15.60
2023-06-10T00:57:30.378Z,16.02
2023-06-10T01:00:15.743Z,15.25
2023-06-10T01:03:00.689Z,16.83
2023-06-10T01:05:53.067Z,15.80
2023-06-10T01:09:23.810Z,14.65
2023-06-10T01:12:24.850Z,15.25
2023-06-10T01:15:10.830Z,17.25
2023-06-10T01:17:58.449Z,16.58
2023-06-10T01:20:44.587Z,16.70
2023-06-10T01:23:30.682Z,17.73
2023-06-10T01:26:16.340Z,18.15
2023-06-10T01:29:12.565Z,16.92
2023-06-10T01:32:19.072Z,15.57
2023-06-10T01:35:06.614Z,16.77
2023-06-10T01:37:55.491Z,16.13
2023-06-10T01:40:42.404Z,17.00
2023-06-10T01:43:27.238Z,16.60
2023-06-10T01:46:12.362Z,18.58
2023-06-10T01:48:57.235Z,18.35
2023-06-10T01:51:42.055Z,17.20
2023-06-10T01:54:26.977Z,21.00
2023-06-10T01:57:11.961Z,18.08
2023-06-10T01:59:56.988Z,17.60
2023-06-10T02:02:42.095Z,17.90
2023-06-10T02:05:26.909Z,17.35
2023-06-10T02:08:11.814Z,21.38
2023-06-10T02:10:56.763Z,17.55
2023-06-10T02:13:41.416Z,20.73
2023-06-10T02:16:27.018Z,19.55
2023-06-10T02:19:12.917Z,19.23
2023-06-10T02:21:57.800Z,22.38
2023-06-10T02:24:42.928Z,18.40
2023-06-10T02:27:27.935Z,19.58
2023-06-10T02:30:13.960Z,16.67
2023-06-10T02:32:59.728Z,18.73
2023-06-10T02:35:44.685Z,20.02
2023-06-10T02:38:29.626Z,18.10
2023-06-10T02:41:14.533Z,18.98
2023-06-10T02:44:00.281Z,17.92
2023-06-10T02:46:44.952Z,16.13
2023-06-10T02:49:30.271Z,16.30
2023-06-10T02:52:15.668Z,17.70
2023-06-10T02:55:00.878Z,19.02
2023-06-10T02:57:45.868Z,17.63
2023-06-10T03:00:31.310Z,15.75
2023-06-10T03:03:16.540Z,18.48
2023-06-10T03:06:14.261Z,16.25
2023-06-10T03:09:04.632Z,17.05
2023-06-10T03:11:49.796Z,18.65
2023-06-10T03:14:39.139Z,15.55
2023-06-10T03:17:24.610Z,16.00
2023-06-10T03:20:10.682Z,17.67
2023-06-10T03:22:57.058Z,13.80
2023-06-10T03:25:41.910Z,15.13
2023-06-10T03:28:30.024Z,15.05
2023-06-10T03:31:17.238Z,14.35
2023-06-10T03:34:02.367Z,14.80
2023-06-10T03:36:47.074Z,12.25
2023-06-10T03:39:32.977Z,13.82
2023-06-10T03:42:18.570Z,12.57
2023-06-10T03:45:04.771Z,14.07
2023-06-10T03:47:52.808Z,13.75
2023-06-10T03:50:41.487Z,14.98
2023-06-10T03:53:26.553Z,14.23
2023-06-10T03:56:11.112Z,13.25
2023-06-10T03:58:56.240Z,14.85
2023-06-10T04:01:41.747Z,13.48
2023-06-10T04:04:26.719Z,13.50
2023-06-10T04:07:11.654Z,14.25
2023-06-10T04:09:56.235Z,14.80
2023-06-10T04:12:41.737Z,13.15
2023-06-10T04:15:26.312Z,14.57
2023-06-10T04:18:11.116Z,14.43
2023-06-10T04:20:56.073Z,14.07
2023-06-10T04:23:40.973Z,15.57
2023-06-10T04:26:28.395Z,13.27
2023-06-10T04:29:13.752Z,13.38
2023-06-10T04:31:58.717Z,15.20
2023-06-10T04:34:43.628Z,14.07
2023-06-10T04:37:29.779Z,13.05
2023-06-10T04:40:16.226Z,14.02
2023-06-10T04:43:01.505Z,13.48
2023-06-10T04:45:46.370Z,13.98
2023-06-10T04:48:32.172Z,14.63
2023-06-10T04:51:17.121Z,14.38
2023-06-10T04:54:04.480Z,12.73
2023-06-10T04:56:49.823Z,12.02
2023-06-10T04:59:37.774Z,14.10
2023-06-10T05:02:22.469Z,13.80
2023-06-10T05:05:07.920Z,12.55
2023-06-10T05:07:53.080Z,12.25
2023-06-10T05:10:38.320Z,11.48
2023-06-10T05:13:22.938Z,10.88
2023-06-10T05:16:08.206Z,10.80
2023-06-10T05:18:53.097Z,11.23
2023-06-10T05:21:38.127Z,9.40
2023-06-10T05:24:23.629Z,11.55
2023-06-10T05:27:09.277Z,11.98
2023-06-10T05:29:54.426Z,11.23
2023-06-10T05:32:39.432Z,10.35
2023-06-10T05:35:24.326Z,11.02
2023-06-10T05:38:08.776Z,9.40
2023-06-10T05:40:53.161Z,9.65
2023-06-10T05:43:37.678Z,12.15
2023-06-10T05:46:22.211Z,10.85
2023-06-10T05:49:07.230Z,9.95
2023-06-10T05:51:53.147Z,12.23
2023-06-10T05:54:38.060Z,11.90
2023-06-10T05:57:22.986Z,10.10
2023-06-10T06:00:08.206Z,10.95
2023-06-10T06:03:02.384Z,13.30
2023-06-10T06:05:47.747Z,10.13
2023-06-10T06:08:32.222Z,11.88
2023-06-10T06:11:17.209Z,12.88
2023-06-10T06:14:01.717Z,11.02
2023-06-10T06:16:46.669Z,10.05
2023-06-10T06:19:31.570Z,11.27
2023-06-10T06:22:20.741Z,10.90
2023-06-10T06:25:06.358Z,14.30
2023-06-10T06:27:51.283Z,10.27
2023-06-10T06:30:36.279Z,10.40
2023-06-10T06:33:20.816Z,11.95
2023-06-10T06:36:05.741Z,10.60
2023-06-10T06:38:50.520Z,11.10
2023-06-10T06:41:35.386Z,11.75
2023-06-10T06:44:20.509Z,10.88
2023-06-10T06:47:11.403Z,11.60
2023-06-10T06:49:55.955Z,12.82
2023-06-10T06:52:40.786Z,13.10
2023-06-10T06:55:25.495Z,11.60
2023-06-10T06:58:09.985Z,12.25
2023-06-10T07:00:55.087Z,12.85
2023-06-10T07:03:41.879Z,13.45
2023-06-10T07:06:26.594Z,12.45
2023-06-10T07:09:11.024Z,11.80
2023-06-10T07:11:55.746Z,15.82
2023-06-10T07:14:40.229Z,13.52
2023-06-10T07:17:25.407Z,13.38
2023-06-10T07:20:10.606Z,13.68
2023-06-10T07:22:55.662Z,13.18
2023-06-10T07:25:42.199Z,14.48
2023-06-10T07:28:27.142Z,14.63
2023-06-10T07:31:12.499Z,14.20
2023-06-10T07:33:57.118Z,12.82
2023-06-10T07:36:42.263Z,12.75
2023-06-10T07:39:27.147Z,11.45
2023-06-10T07:42:12.305Z,12.63
2023-06-10T07:44:57.059Z,13.40
2023-06-10T07:47:41.677Z,13.30
2023-06-10T07:50:26.632Z,12.50
2023-06-10T07:53:11.646Z,13.00
2023-06-10T07:55:56.727Z,14.65
2023-06-10T07:58:41.688Z,13.90
2023-06-10T08:01:26.627Z,12.95
2023-06-10T08:04:11.968Z,11.82
2023-06-10T08:06:57.489Z,15.48
2023-06-10T08:09:42.118Z,12.70
2023-06-10T08:12:26.538Z,10.95
2023-06-10T08:15:11.429Z,12.25
2023-06-10T08:17:57.045Z,11.88
2023-06-10T08:20:41.751Z,12.70
2023-06-10T08:23:26.400Z,13.05
2023-06-10T08:26:11.216Z,11.60
2023-06-10T08:28:56.090Z,14.23
2023-06-10T08:31:44.938Z,11.23
2023-06-10T08:34:29.551Z,13.57
2023-06-10T08:37:14.490Z,10.85
2023-06-10T08:39:58.919Z,12.02
2023-06-10T08:42:53.733Z,11.40
2023-06-10T08:45:38.383Z,10.85
2023-06-10T08:48:23.917Z,14.35
2023-06-10T08:51:12.042Z,12.18
2023-06-10T08:54:03.562Z,10.18
2023-06-10T08:56:51.603Z,11.77
2023-06-10T08:59:37.821Z,12.07
2023-06-10T09:02:23.919Z,10.45
2023-06-10T09:05:09.573Z,11.35
2023-06-10T09:07:56.173Z,11.85
2023-06-10T09:10:41.398Z,11.88
2023-06-10T09:13:26.129Z,11.13
2023-06-10T09:16:12.180Z,11.02
2023-06-10T09:18:56.717Z,12.15
2023-06-10T09:21:41.613Z,10.38
2023-06-10T09:24:26.289Z,10.40
2023-06-10T09:27:13.818Z,10.20
2023-06-10T09:29:59.303Z,9.57
2023-06-10T09:32:44.275Z,9.50
2023-06-10T09:35:31.187Z,10.95
2023-06-10T09:38:31.271Z,9.45
2023-06-10T09:41:15.819Z,10.32
2023-06-10T09:44:01.278Z,8.80
2023-06-10T09:46:47.649Z,9.13
2023-06-10T09:49:32.515Z,10.63
2023-06-10T09:52:25.039Z,8.90
2023-06-10T09:55:11.600Z,9.32
2023-06-10T09:57:56.339Z,11.57
2023-06-10T10:00:41.319Z,11.40
2023-06-10T10:03:26.379Z,10.32
2023-06-10T10:06:11.920Z,7.82
2023-06-10T10:08:56.802Z,8.60
2023-06-10T10:11:42.678Z,8.27
2023-06-10T10:14:31.507Z,8.95
2023-06-10T10:17:17.141Z,10.15
2023-06-10T10:20:05.367Z,8.60
2023-06-10T10:22:53.048Z,10.63
2023-06-10T10:25:43.597Z,7.82
2023-06-10T10:28:38.851Z,10.30
2023-06-10T10:31:26.248Z,9.38
2023-06-10T10:34:19.817Z,10.98
2023-06-10T10:37:04.714Z,9.50
2023-06-10T10:39:50.317Z,8.60
2023-06-10T10:42:36.252Z,9.85
2023-06-10T10:45:22.352Z,12.68
2023-06-10T10:48:12.251Z,9.25
2023-06-10T10:50:58.472Z,7.65
2023-06-10T10:53:45.030Z,9.02
2023-06-10T10:56:30.944Z,7.60
2023-06-10T10:59:20.228Z,12.38
2023-06-10T11:02:05.199Z,8.50
2023-06-10T11:04:51.378Z,6.53
2023-06-10T11:07:37.149Z,8.90
2023-06-10T11:10:54.497Z,8.50
2023-06-10T11:13:39.196Z,7.18
2023-06-10T11:16:26.533Z,7.90
2023-06-10T11:19:39.371Z,9.98
2023-06-10T11:22:24.348Z,7.05
2023-06-10T11:25:15.527Z,9.18
2023-06-10T11:28:00.465Z,8.52
2023-06-10T11:30:45.790Z,8.52
2023-06-10T11:33:31.503Z,8.32
2023-06-10T11:36:17.436Z,12.25
2023-06-10T11:39:04.846Z,8.15
2023-06-10T11:41:52.072Z,6.85
2023-06-10T11:44:38.186Z,8.43
2023-06-10T11:47:23.289Z,7.13
2023-06-10T11:50:08.700Z,7.78
2023-06-10T11:52:56.383Z,6.93
2023-06-10T11:55:52.120Z,6.18
2023-06-10T11:58:37.059Z,8.88
2023-06-10T12:01:29.119Z,5.57
2023-06-10T12:04:18.955Z,5.28
2023-06-10T12:07:03.818Z,6.28
2023-06-10T12:10:06.241Z,6.72
2023-06-10T12:12:57.287Z,6.68
2023-06-10T12:15:42.539Z,8.82
2023-06-10T12:18:27.475Z,5.75
2023-06-10T12:21:17.189Z,6.47
2023-06-10T12:24:02.705Z,6.28
2023-06-10T12:26:47.845Z,5.43
2023-06-10T12:29:32.606Z,7.10
2023-06-10T12:32:18.883Z,5.78
2023-06-10T12:35:05.558Z,7.53
2023-06-10T12:38:01.728Z,6.70
2023-06-10T12:40:46.581Z,7.15
2023-06-10T12:43:31.639Z,6.15
2023-06-10T12:46:19.510Z,6.85
2023-06-10T12:49:04.205Z,7.72
2023-06-10T12:51:49.344Z,7.18
2023-06-10T12:54:34.904Z,6.45
2023-06-10T12:57:19.554Z,9.48
2023-06-10T13:00:09.051Z,5.80
2023-06-10T13:02:54.303Z,6.10
2023-06-10T13:05:39.256Z,5.60
2023-06-10T13:08:23.887Z,7.03
2023-06-10T13:11:08.948Z,5.25
2023-06-10T13:13:53.530Z,6.85
2023-06-10T13:16:38.910Z,6.60
2023-06-10T13:19:23.634Z,8.20
2023-06-10T13:22:08.548Z,6.50
2023-06-10T13:24:53.001Z,7.63
2023-06-10T13:27:42.334Z,6.00
2023-06-10T13:30:27.343Z,9.73
2023-06-10T13:33:12.664Z,6.70
2023-06-10T13:35:57.363Z,7.28
2023-06-10T13:38:42.560Z,5.90
2023-06-10T13:41:29.118Z,6.60
2023-06-10T13:44:13.846Z,7.05
2023-06-10T13:46:58.880Z,7.50
2023-06-10T13:49:43.874Z,5.80
2023-06-10T13:52:28.855Z,8.43
2023-06-10T13:55:14.084Z,6.85
2023-06-10T13:57:59.053Z,7.25
2023-06-10T14:00:44.150Z,7.93
2023-06-10T14:03:29.293Z,7.05
2023-06-10T14:06:18.557Z,6.80
2023-06-10T14:09:03.838Z,6.65
2023-06-10T14:11:49.271Z,9.70
2023-06-10T14:14:34.281Z,7.57
2023-06-10T14:17:18.702Z,7.38
2023-06-10T14:20:04.741Z,7.97
2023-06-10T14:22:49.166Z,9.35
2023-06-10T14:25:33.649Z,7.63
2023-06-10T14:28:18.645Z,8.25
2023-06-10T14:31:03.193Z,8.43
2023-06-10T14:33:48.160Z,7.55
2023-06-10T14:36:33.607Z,7.93
2023-06-10T14:39:18.779Z,11.00
2023-06-10T14:42:03.890Z,7.95
2023-06-10T14:44:49.788Z,8.20
2023-06-10T14:47:34.667Z,8.73
2023-06-10T14:50:19.773Z,6.90
2023-06-10T14:53:04.279Z,9.98
2023-06-10T14:55:49.205Z,7.97
2023-06-10T14:58:34.126Z,7.90
2023-06-10T15:01:19.227Z,6.72
2023-06-10T15:04:04.266Z,6.47
2023-06-10T15:06:50.528Z,7.15
2023-06-10T15:09:35.511Z,8.05
2023-06-10T15:12:20.675Z,7.88
2023-06-10T15:15:06.053Z,10.40
2023-06-10T15:17:51.697Z,8.77
2023-06-10T15:20:36.666Z,5.97
2023-06-10T15:23:21.748Z,6.30
2023-06-10T15:26:06.477Z,5.80
2023-06-10T15:28:51.868Z,9.38
2023-06-10T15:31:37.332Z,8.07
2023-06-10T15:34:22.252Z,12.57
2023-06-10T15:37:07.298Z,6.82
2023-06-10T15:39:52.611Z,7.82
2023-06-10T15:42:37.380Z,9.05
2023-06-10T15:45:22.543Z,7.32
2023-06-10T15:48:07.555Z,8.63
2023-06-10T15:50:52.394Z,8.38
2023-06-10T15:53:37.040Z,7.57
2023-06-10T15:56:23.019Z,9.55
2023-06-10T15:59:07.661Z,10.07
2023-06-10T16:01:52.707Z,9.65
2023-06-10T16:04:37.576Z,8.52
2023-06-10T16:07:22.648Z,8.30
2023-06-10T16:10:07.737Z,7.88
2023-06-10T16:12:52.755Z,7.65
2023-06-10T16:15:37.761Z,7.05
2023-06-10T16:18:22.826Z,8.85
2023-06-10T16:21:07.520Z,7.53
2023-06-10T16:23:52.517Z,7.25
2023-06-10T16:26:37.553Z,8.32
2023-06-10T16:29:22.483Z,8.80
2023-06-10T16:32:08.201Z,7.53
2023-06-10T16:34:52.983Z,8.30
2023-06-10T16:37:37.617Z,6.30
2023-06-10T16:40:22.731Z,6.88
2023-06-10T16:43:07.544Z,8.23
2023-06-10T16:45:55.531Z,11.45
2023-06-10T16:48:40.125Z,6.82
2023-06-10T16:51:25.210Z,7.53
2023-06-10T16:54:10.166Z,9.82
2023-06-10T16:56:55.037Z,9.48
2023-06-10T16:59:40.142Z,9.45
2023-06-10T17:02:26.864Z,7.63
2023-06-10T17:05:11.941Z,8.60
2023-06-10T17:07:57.044Z,10.23
2023-06-10T17:10:41.731Z,8.70
2023-06-10T17:13:27.277Z,8.05
2023-06-10T17:16:12.128Z,9.68
2023-06-10T17:18:57.131Z,6.47
2023-06-10T17:21:41.569Z,8.20
2023-06-10T17:24:28.032Z,7.63
2023-06-10T17:27:12.847Z,10.35
2023-06-10T17:29:57.957Z,6.78
2023-06-10T17:32:44.241Z,6.97
2023-06-10T17:35:29.327Z,6.72
2023-06-10T17:38:16.029Z,6.35
2023-06-10T17:41:00.698Z,6.38
2023-06-10T17:43:45.623Z,8.95
2023-06-10T17:46:30.235Z,7.15
2023-06-10T17:49:14.765Z,7.20
2023-06-10T17:52:00.044Z,6.78
2023-06-10T17:54:44.765Z,6.40
2023-06-10T17:57:31.138Z,7.95
2023-06-10T18:00:16.265Z,7.93
2023-06-10T18:03:01.233Z,11.23
2023-06-10T18:05:45.857Z,8.65
2023-06-10T18:08:31.611Z,6.18
2023-06-10T18:11:16.926Z,6.78
2023-06-10T18:14:01.809Z,6.65
2023-06-10T18:16:47.055Z,7.10
2023-06-10T18:19:31.789Z,5.88
2023-06-10T18:22:16.859Z,7.68
2023-06-10T18:25:05.162Z,7.18
2023-06-10T18:27:49.715Z,6.72
2023-06-10T18:30:35.124Z,7.82
2023-06-10T18:33:19.944Z,6.20
2023-06-10T18:36:05.150Z,6.28
2023-06-10T18:38:50.840Z,7.32
2023-06-10T18:41:35.873Z,6.50
2023-06-10T18:44:20.769Z,7.22
2023-06-10T18:47:06.337Z,7.45
2023-06-10T18:49:51.196Z,7.60
2023-06-10T18:52:35.739Z,6.35
2023-06-10T18:55:20.239Z,7.25
2023-06-10T18:58:05.302Z,6.65
2023-06-10T19:00:50.369Z,7.57
2023-06-10T19:03:35.373Z,7.65
2023-06-10T19:06:20.210Z,7.57
2023-06-10T19:09:05.255Z,8.95
2023-06-10T19:11:50.131Z,6.32
2023-06-10T19:14:35.090Z,6.70
2023-06-10T19:17:19.885Z,7.13
2023-06-10T19:20:05.522Z,6.18
2023-06-10T19:22:50.055Z,7.35
2023-06-10T19:25:35.444Z,7.53
2023-06-10T19:28:20.249Z,7.13
2023-06-10T19:31:05.296Z,6.90
2023-06-10T19:33:50.281Z,7.75
2023-06-10T19:36:35.691Z,8.48
2023-06-10T19:39:20.395Z,8.10
2023-06-10T19:42:08.673Z,9.98
2023-06-10T19:44:55.318Z,11.43
2023-06-10T19:47:40.169Z,7.60
2023-06-10T19:50:25.684Z,7.82
2023-06-10T19:53:10.926Z,9.27
2023-06-10T19:55:55.405Z,8.65
2023-06-10T19:58:40.497Z,9.65
2023-06-10T20:01:25.582Z,10.15
2023-06-10T20:04:10.583Z,10.85
2023-06-10T20:06:55.619Z,10.52
2023-06-10T20:09:40.909Z,9.23
2023-06-10T20:12:25.564Z,10.45
2023-06-10T20:15:10.696Z,11.10
2023-06-10T20:17:55.844Z,11.10
2023-06-10T20:20:40.856Z,10.90
2023-06-10T20:23:25.646Z,11.63
2023-06-10T20:26:10.574Z,11.10
2023-06-10T20:28:55.138Z,12.07
2023-06-10T20:31:40.334Z,11.85
2023-06-10T20:34:26.144Z,13.52
2023-06-10T20:37:11.876Z,12.65
2023-06-10T20:39:56.489Z,12.15
2023-06-10T20:42:41.556Z,12.65
2023-06-10T20:45:26.538Z,12.55
2023-06-10T20:48:11.589Z,13.30
2023-06-10T20:50:56.460Z,12.55
2023-06-10T20:53:41.456Z,12.48
2023-06-10T20:56:27.106Z,12.50
2023-06-10T20:59:11.922Z,13.07
2023-06-10T21:01:57.139Z,12.77
2023-06-10T21:04:42.149Z,13.95
2023-06-10T21:07:27.103Z,12.23
2023-06-10T21:10:12.732Z,12.32
2023-06-10T21:12:57.544Z,16.00
2023-06-10T21:15:42.616Z,15.48
2023-06-10T21:18:28.625Z,13.43
2023-06-10T21:21:13.486Z,16.48
2023-06-10T21:23:58.595Z,12.38
2023-06-10T21:26:43.382Z,12.63
2023-06-10T21:29:28.680Z,13.15
2023-06-10T21:32:14.127Z,11.75
2023-06-10T21:34:59.064Z,13.45
2023-06-10T21:37:44.222Z,15.27
2023-06-10T21:40:29.189Z,12.80
2023-06-10T21:43:14.302Z,13.25
2023-06-10T21:45:58.780Z,14.82
2023-06-10T21:48:43.832Z,12.00
2023-06-10T21:51:28.415Z,12.45
2023-06-10T21:54:13.756Z,15.32
2023-06-10T21:56:58.393Z,13.95
2023-06-10T21:59:44.460Z,15.75
2023-06-10T22:02:29.295Z,14.25
2023-06-10T22:05:14.304Z,11.13
2023-06-10T22:08:00.660Z,13.98
2023-06-10T22:10:45.697Z,14.30
2023-06-10T22:13:30.123Z,12.13
2023-06-10T22:16:15.284Z,14.93
2023-06-10T22:19:00.204Z,14.52
2023-06-10T22:21:45.333Z,13.27
2023-06-10T22:24:30.254Z,13.13
2023-06-10T22:27:15.080Z,13.73
2023-06-10T22:30:00.692Z,12.63
2023-06-10T22:32:46.048Z,13.40
2023-06-10T22:35:31.065Z,14.05
2023-06-10T22:38:16.233Z,13.18
2023-06-10T22:41:01.045Z,14.32
2023-06-10T22:43:45.947Z,14.05
2023-06-10T22:46:30.812Z,13.07
2023-06-10T22:49:16.769Z,14.50
2023-06-10T22:52:01.379Z,13.95
2023-06-10T22:54:46.640Z,13.30
2023-06-10T22:57:31.820Z,13.65
2023-06-10T23:00:16.952Z,16.45
2023-06-10T23:03:01.541Z,17.30
2023-06-10T23:05:46.605Z,14.85
2023-06-10T23:08:31.149Z,13.57
2023-06-10T23:11:16.446Z,15.38
2023-06-10T23:14:01.385Z,14.32
2023-06-10T23:16:47.085Z,14.52
2023-06-10T23:19:33.643Z,14.73
2023-06-10T23:22:19.038Z,17.35
2023-06-10T23:25:04.951Z,16.90
2023-06-10T23:27:50.315Z,15.10
2023-06-10T23:30:34.997Z,17.05
2023-06-10T23:33:20.596Z,16.25
2023-06-10T23:36:05.461Z,17.92
2023-06-10T23:38:53.073Z,18.08
2023-06-10T23:41:37.938Z,17.75
2023-06-10T23:44:23.037Z,18.05
2023-06-10T23:47:08.036Z,20.50
2023-06-10T23:49:52.795Z,18.90
2023-06-10T23:52:37.198Z,20.38
2023-06-10T23:55:23.591Z,18.63
2023-06-10T23:58:08.243Z,14.82
